Time;durP1;ratioP1;P1;durP2;ratioP2;P2;SDS_P1;SDS_P2;PMS_P1;PMS_P2;Temp;Humidity;BMP_temperature;BMP_pressure;BME280_temperature;BME280_humidity;BME280_pressure;Samples;Min_cycle;Max_cycle;Signal;HPM_P1;HPM_P2
2023/10/15 00:00:24;;;;;;;9.63;2.85;;;;;;;7.00;92.75;101647.13;4966766;28;20388;-79
2023/10/15 00:02:53;;;;;;;9.50;2.63;;;;;;;6.99;92.96;101648.00;4959267;28;20448;-78
2023/10/15 00:05:25;;;;;;;8.70;3.00;;;;;;;7.01;92.93;101648.03;4959064;28;20113;-78
2023/10/15 00:07:54;;;;;;;9.00;3.15;;;;;;;7.03;93.04;101641.88;4967676;28;20097;-78
2023/10/15 00:10:25;;;;;;;9.95;2.70;;;;;;;7.12;93.47;101662.84;4968707;28;20117;-78
2023/10/15 00:12:54;;;;;;;9.75;2.65;;;;;;;7.28;93.54;101737.09;4958089;28;20050;-78
2023/10/15 00:15:25;;;;;;;10.48;3.03;;;;;;;7.35;92.99;101739.69;4954110;28;20050;-82
2023/10/15 00:18:09;;;;;;;9.40;2.90;;;;;;;7.35;92.48;101682.88;4951402;28;20817;-78
2023/10/15 00:20:40;;;;;;;10.82;3.47;;;;;;;7.41;91.10;101711.69;4955067;28;20125;-79
2023/10/15 00:23:09;;;;;;;8.15;2.85;;;;;;;7.49;90.89;101703.81;4968585;28;20837;-79
2023/10/15 00:25:41;;;;;;;8.60;2.53;;;;;;;7.56;90.71;101704.66;4967265;28;20050;-78
2023/10/15 00:28:09;;;;;;;8.57;2.90;;;;;;;7.64;89.49;101704.63;4967916;28;20043;-79
2023/10/15 00:30:39;;;;;;;10.13;2.60;;;;;;;7.69;89.44;101694.97;4967998;28;20153;-78
2023/10/15 00:33:11;;;;;;;12.07;3.67;;;;;;;7.75;89.58;101697.56;4967469;28;20042;-78
2023/10/15 00:35:44;;;;;;;9.38;2.70;;;;;;;7.77;89.78;101699.34;4967058;28;20047;-79
2023/10/15 00:38:16;;;;;;;9.60;2.72;;;;;;;7.81;89.87;101694.94;4967367;28;20692;-79
2023/10/15 00:40:49;;;;;;;10.70;2.88;;;;;;;7.80;90.13;101690.56;4951055;28;21664;-78
2023/10/15 00:43:17;;;;;;;9.18;2.90;;;;;;;7.81;90.59;101694.03;4997694;28;20105;-79
2023/10/15 00:45:46;;;;;;;10.05;3.05;;;;;;;7.83;90.60;101697.53;4966726;28;20043;-79
2023/10/15 00:48:33;;;;;;;7.18;3.10;;;;;;;7.84;90.96;101697.53;4968270;28;20055;-78
2023/10/15 00:51:11;;;;;;;7.47;2.75;;;;;;;7.86;91.03;101698.41;4952717;28;20050;-78
2023/10/15 00:53:50;;;;;;;8.80;2.85;;;;;;;7.85;90.71;101696.66;4968033;28;20050;-78
2023/10/15 00:56:25;;;;;;;8.65;2.70;;;;;;;7.91;90.49;101706.25;4964443;28;20546;-78
2023/10/15 01:01:34;;;;;;;7.82;2.80;;;;;;;7.90;89.86;101712.38;4949468;28;20388;-82
2023/10/15 01:04:09;;;;;;;11.75;3.03;;;;;;;7.87;90.03;101705.38;4948517;28;20683;-79
2023/10/15 01:06:39;;;;;;;7.50;2.85;;;;;;;7.91;89.61;101714.13;4948577;28;20114;-78
2023/10/15 01:11:56;;;;;;;10.48;2.92;;;;;;;7.91;90.13;101701.88;4967906;28;20122;-78
2023/10/15 01:14:31;;;;;;;9.20;2.65;;;;;;;7.92;90.12;101689.63;4966306;28;20057;-78
2023/10/15 01:17:02;;;;;;;6.93;2.80;;;;;;;7.84;90.25;101691.41;4963748;28;20066;-79
2023/10/15 01:19:34;;;;;;;8.32;2.80;;;;;;;7.76;90.61;101686.19;4956408;28;20054;-78
2023/10/15 01:22:10;;;;;;;9.35;2.92;;;;;;;7.68;91.07;101691.47;4967783;28;20070;-78
2023/10/15 01:24:41;;;;;;;8.73;2.80;;;;;;;7.65;91.93;101694.13;4966848;28;20050;-79
2023/10/15 01:27:11;;;;;;;8.40;2.90;;;;;;;7.61;92.40;101698.53;4968612;28;20677;-78
2023/10/15 01:29:42;;;;;;;6.68;2.60;;;;;;;7.60;93.16;101709.00;4966526;28;20146;-79
2023/10/15 01:32:13;;;;;;;11.70;2.80;;;;;;;7.56;93.54;101708.16;4965668;28;20043;-78
2023/10/15 01:34:48;;;;;;;7.43;2.70;;;;;;;7.53;93.94;101710.78;4971917;28;20046;-79
2023/10/15 01:39:52;;;;;;;11.60;2.65;;;;;;;7.50;94.46;101718.69;4966953;28;20039;-78
2023/10/15 01:48:01;;;;;;;;;;;;;;;7.28;95.36;101684.66;4965995;28;20070;-78
2023/10/15 01:50:33;;;;;;;8.00;2.10;;;;;;;7.14;95.76;101695.19;4965880;28;20432;-78
2023/10/15 01:53:04;;;;;;;7.80;2.38;;;;;;;7.07;96.32;101697.81;4971623;28;20046;-78
2023/10/15 01:55:35;;;;;;;9.13;2.47;;;;;;;7.02;96.90;101687.34;4969236;28;20142;-78
2023/10/15 01:58:05;;;;;;;5.57;2.40;;;;;;;6.99;97.65;101682.97;4985315;28;20055;-78
2023/10/15 02:00:33;;;;;;;5.20;2.40;;;;;;;7.01;98.41;101671.63;4970041;28;20047;-78
2023/10/15 02:03:01;;;;;;;5.93;2.22;;;;;;;6.98;98.65;101673.34;4969271;28;20037;-79
2023/10/15 02:05:46;;;;;;;8.02;3.10;;;;;;;6.95;98.99;101673.34;4969542;28;20098;-79
2023/10/15 02:08:25;;;;;;;6.60;2.65;;;;;;;6.90;99.15;101671.63;4970137;28;20042;-78
2023/10/15 02:10:54;;;;;;;9.05;2.75;;;;;;;6.82;99.35;101667.28;4970823;28;20661;-78
2023/10/15 02:13:26;;;;;;;5.40;2.63;;;;;;;6.76;99.86;101664.66;4969168;28;20054;-78
2023/10/15 02:15:57;;;;;;;8.60;3.15;;;;;;;6.71;99.98;101676.03;4967663;28;20038;-78
2023/10/15 02:18:29;;;;;;;7.97;2.88;;;;;;;6.68;100.00;101674.25;5000064;28;20054;-78
2023/10/15 02:23:25;;;;;;;8.45;3.25;;;;;;;6.67;100.00;101669.88;4977450;28;20086;-87
2023/10/15 02:25:58;;;;;;;7.68;3.53;;;;;;;6.68;100.00;101669.03;4975334;28;20439;-84
2023/10/15 02:28:31;;;;;;;9.02;3.17;;;;;;;6.71;100.00;101670.78;4975470;28;20503;-87
2023/10/15 02:31:14;;;;;;;11.02;3.40;;;;;;;6.73;100.00;101680.38;4972973;28;20034;-86
2023/10/15 02:33:42;;;;;;;10.55;3.20;;;;;;;6.76;100.00;101695.22;4963922;28;20054;-85
2023/10/15 02:36:09;;;;;;;9.48;3.30;;;;;;;6.76;100.00;101703.09;4970920;28;20039;-86
2023/10/15 02:38:38;;;;;;;8.45;2.90;;;;;;;6.82;100.00;101711.81;4974476;28;20448;-84
2023/10/15 02:41:06;;;;;;;9.73;3.13;;;;;;;6.86;100.00;101711.84;4970873;28;20133;-83
2023/10/15 02:43:48;;;;;;;10.05;3.22;;;;;;;6.81;100.00;101719.69;5004627;28;20114;-84
2023/10/15 02:46:22;;;;;;;6.90;2.95;;;;;;;6.86;100.00;101715.31;5008639;28;20051;-82
2023/10/15 02:48:53;;;;;;;10.20;3.22;;;;;;;6.93;100.00;101716.19;4989880;28;20125;-84
2023/10/15 02:51:24;;;;;;;8.45;3.33;;;;;;;6.96;100.00;101713.56;4972247;28;20042;-84
2023/10/15 02:53:55;;;;;;;6.60;2.92;;;;;;;6.97;100.00;101712.66;4970575;28;20047;-82
2023/10/15 02:56:22;;;;;;;5.95;2.70;;;;;;;6.92;100.00;101706.56;4969329;28;20080;-78
2023/10/15 02:58:50;;;;;;;5.75;2.10;;;;;;;6.91;100.00;101716.19;4969091;28;20071;-78
2023/10/15 03:01:19;;;;;;;5.18;1.60;;;;;;;6.89;100.00;101717.94;4968800;28;20043;-76
2023/10/15 03:03:49;;;;;;;8.57;2.20;;;;;;;6.87;100.00;101700.47;4968712;28;20054;-75
2023/10/15 03:06:31;;;;;;;3.92;1.88;;;;;;;6.82;100.00;101703.06;4968741;28;20050;-75
2023/10/15 03:08:59;;;;;;;6.18;1.85;;;;;;;6.81;100.00;101703.97;4951729;28;20130;-75
2023/10/15 03:11:33;;;;;;;5.53;1.50;;;;;;;6.78;100.00;101698.72;4969159;28;20049;-76
2023/10/15 03:14:00;;;;;;;3.67;1.63;;;;;;;6.78;100.00;101694.34;4968356;28;20392;-75
2023/10/15 03:16:31;;;;;;;6.15;1.85;;;;;;;6.73;100.00;101693.50;4968988;28;20049;-75
2023/10/15 03:19:07;;;;;;;5.25;1.70;;;;;;;6.70;100.00;101685.63;4969680;28;20090;-75
2023/10/15 03:21:38;;;;;;;6.18;1.30;;;;;;;6.70;100.00;101685.63;4969006;28;20043;-75
2023/10/15 03:24:07;;;;;;;5.70;1.60;;;;;;;6.71;100.00;101684.75;4969634;28;20770;-75
2023/10/15 03:26:35;;;;;;;5.07;1.60;;;;;;;6.72;100.00;101672.50;4975895;28;20046;-76
2023/10/15 03:29:13;;;;;;;2.78;1.35;;;;;;;6.73;100.00;101674.25;4968524;28;20043;-77
2023/10/15 03:31:48;;;;;;;2.80;1.27;;;;;;;6.73;100.00;101643.69;4969836;28;20035;-76
2023/10/15 03:34:22;;;;;;;5.55;1.70;;;;;;;6.73;100.00;101646.31;4972752;28;20499;-77
2023/10/15 03:36:51;;;;;;;;;;;;;;;6.72;100.00;101636.72;4968619;28;20739;-75
2023/10/15 03:39:44;;;;;;;5.10;1.65;;;;;;;6.70;100.00;101633.22;4967914;28;19926;-75
2023/10/15 03:44:47;;;;;;;4.43;1.80;;;;;;;6.68;100.00;101638.47;4966913;28;20055;-76
2023/10/15 03:47:17;;;;;;;4.47;2.20;;;;;;;6.71;100.00;101636.72;4967230;28;20043;-75
2023/10/15 03:49:46;;;;;;;5.00;1.85;;;;;;;6.70;100.00;101638.44;4967405;28;20066;-75
2023/10/15 03:52:14;;;;;;;5.30;1.70;;;;;;;6.69;100.00;101631.47;4968170;28;20063;-75
2023/10/15 03:54:47;;;;;;;3.35;1.40;;;;;;;6.68;100.00;101640.19;4971539;28;20426;-75
2023/10/15 03:57:18;;;;;;;3.17;1.23;;;;;;;6.61;100.00;101652.47;4968168;28;20050;-74
2023/10/15 03:59:52;;;;;;;4.85;1.40;;;;;;;6.55;100.00;101655.06;4968135;28;20467;-75
2023/10/15 04:02:39;;;;;;;;;;;;;;;6.52;100.00;101655.06;4965571;28;20070;-74
2023/10/15 04:05:19;;;;;;;4.80;1.88;;;;;;;6.51;100.00;101669.06;4968713;28;19933;-75
2023/10/15 04:07:48;;;;;;;4.40;1.70;;;;;;;6.48;100.00;101672.53;4962642;28;20125;-74
2023/10/15 04:10:23;;;;;;;3.70;1.60;;;;;;;6.49;100.00;101678.66;4968337;28;20051;-75
2023/10/15 04:12:51;;;;;;;3.60;1.55;;;;;;;6.48;100.00;101676.91;4968528;28;20736;-74
2023/10/15 04:15:21;;;;;;;4.57;1.40;;;;;;;6.50;100.00;101683.03;4970693;28;20143;-75
2023/10/15 04:17:51;;;;;;;3.22;1.50;;;;;;;6.48;100.00;101677.75;4962451;28;20568;-74
2023/10/15 04:20:40;;;;;;;4.28;1.40;;;;;;;6.52;100.00;101679.53;4968436;28;20039;-75
2023/10/15 04:23:13;;;;;;;3.45;1.23;;;;;;;6.53;100.00;101685.63;4967801;28;20133;-74
2023/10/15 04:25:40;;;;;;;2.63;1.30;;;;;;;6.55;100.00;101688.25;4957119;28;20039;-76
2023/10/15 04:28:13;;;;;;;3.78;1.10;;;;;;;6.56;100.00;101685.63;4967326;28;20121;-77
2023/10/15 04:30:41;;;;;;;2.42;0.80;;;;;;;6.60;100.00;101691.75;4967789;28;20118;-77
2023/10/15 04:33:13;;;;;;;3.00;1.00;;;;;;;6.60;100.00;101682.16;4968748;28;20125;-77
2023/10/15 04:35:41;;;;;;;2.78;1.08;;;;;;;6.59;100.00;101680.41;4968471;28;20039;-77
2023/10/15 04:38:10;;;;;;;2.63;0.80;;;;;;;6.59;100.00;101684.75;4967843;28;20093;-76
2023/10/15 04:41:21;;;;;;;2.35;1.00;;;;;;;6.58;100.00;101683.88;4969482;28;20611;-77
2023/10/15 04:43:28;;;;;;;2.28;0.77;;;;;;;6.57;100.00;101682.13;4968297;28;20086;-78
2023/10/15 04:45:57;;;;;;;1.48;0.63;;;;;;;6.55;100.00;101680.41;4968482;28;20043;-79
2023/10/15 04:48:30;;;;;;;1.90;0.85;;;;;;;6.53;100.00;101683.00;4961765;28;20478;-79
2023/10/15 04:51:13;;;;;;;3.47;1.00;;;;;;;6.55;100.00;101693.50;4959964;28;20035;-78
2023/10/15 04:53:50;;;;;;;1.92;0.95;;;;;;;6.56;100.00;101698.72;4962679;28;20065;-80
2023/10/15 04:56:18;;;;;;;2.75;1.42;;;;;;;6.55;100.00;101698.75;4958117;28;20063;-80
2023/10/15 04:58:45;;;;;;;3.25;1.60;;;;;;;6.58;100.00;101717.06;4960440;28;20487;-78
2023/10/15 05:01:14;;;;;;;2.40;1.17;;;;;;;6.59;100.00;101709.22;4961949;28;20043;-79
2023/10/15 05:03:45;;;;;;;4.32;1.25;;;;;;;6.59;100.00;101718.81;4961694;28;20045;-79
2023/10/15 05:06:13;;;;;;;1.42;0.60;;;;;;;6.60;100.00;101716.22;4963220;28;20129;-80
2023/10/15 05:08:40;;;;;;;2.15;0.73;;;;;;;6.59;100.00;101708.34;4960526;28;20066;-79
2023/10/15 05:11:08;;;;;;;1.83;0.60;;;;;;;6.59;100.00;101714.47;4961027;28;20118;-79
2023/10/15 05:13:36;;;;;;;2.05;0.80;;;;;;;6.59;100.00;101709.22;4958386;28;20039;-79
2023/10/15 05:16:04;;;;;;;2.03;1.00;;;;;;;6.59;100.00;101697.84;4956251;28;20062;-74
2023/10/15 05:18:32;;;;;;;2.80;0.80;;;;;;;6.59;100.00;101698.75;4960647;28;20150;-74
2023/10/15 05:21:03;;;;;;;2.97;0.90;;;;;;;6.56;100.00;101695.25;4956685;28;20047;-73
2023/10/15 05:23:30;;;;;;;2.88;0.70;;;;;;;6.53;100.00;101673.41;4966072;28;20042;-73
2023/10/15 05:25:57;;;;;;;2.78;0.80;;;;;;;6.56;100.00;101677.78;4961281;28;20065;-74
2023/10/15 05:28:26;;;;;;;2.45;0.68;;;;;;;6.60;100.00;101669.03;4969866;28;20055;-76
2023/10/15 05:30:54;;;;;;;2.85;0.70;;;;;;;6.62;100.00;101674.28;4970530;28;20073;-75
2023/10/15 05:33:22;;;;;;;3.55;1.00;;;;;;;6.62;100.00;101677.75;4966200;28;20145;-75
2023/10/15 05:35:49;;;;;;;2.17;0.95;;;;;;;6.61;100.00;101673.41;4964408;28;20038;-75
2023/10/15 05:38:16;;;;;;;1.95;0.90;;;;;;;6.61;100.00;101681.28;4960042;28;20051;-76
2023/10/15 05:40:44;;;;;;;2.30;0.90;;;;;;;6.62;100.00;101679.50;4972177;28;20050;-75
2023/10/15 05:43:12;;;;;;;2.28;0.88;;;;;;;6.60;100.00;101687.38;4968759;28;20620;-76
2023/10/15 05:45:39;;;;;;;3.45;1.15;;;;;;;6.59;100.00;101682.13;4971349;28;20042;-76
2023/10/15 05:48:07;;;;;;;3.03;1.20;;;;;;;6.54;100.00;101687.38;4970684;28;20035;-76
2023/10/15 05:50:34;;;;;;;5.18;1.02;;;;;;;6.49;100.00;101692.63;4971290;28;20054;-76
2023/10/15 05:53:01;;;;;;;2.85;1.10;;;;;;;6.44;100.00;101702.22;4970994;28;20089;-73
2023/10/15 05:55:29;;;;;;;3.38;1.10;;;;;;;6.38;100.00;101707.44;4970841;28;20435;-74
2023/10/15 05:57:58;;;;;;;3.40;1.20;;;;;;;6.32;100.00;101712.69;4970509;28;20051;-73
2023/10/15 06:00:28;;;;;;;1.63;1.10;;;;;;;6.24;100.00;101707.44;4969020;28;20042;-75
2023/10/15 06:02:56;;;;;;;3.08;1.20;;;;;;;6.20;100.00;101708.31;4961628;28;20050;-76
2023/10/15 06:05:24;;;;;;;3.17;1.17;;;;;;;6.16;100.00;101709.16;4962891;28;20109;-77
2023/10/15 06:07:54;;;;;;;4.38;1.30;;;;;;;6.14;100.00;101706.56;4958162;28;20039;-80
2023/10/15 06:10:22;;;;;;;2.58;1.40;;;;;;;6.11;100.00;101709.16;4968583;28;20141;-77
2023/10/15 06:12:49;;;;;;;1.73;1.20;;;;;;;6.09;100.00;101729.22;4970437;28;20051;-79
2023/10/15 06:15:16;;;;;;;3.95;1.60;;;;;;;6.08;100.00;101737.94;4972051;28;20065;-78
2023/10/15 06:17:47;;;;;;;3.38;1.38;;;;;;;6.05;100.00;101754.53;4971324;28;20054;-78
2023/10/15 06:20:15;;;;;;;3.42;1.40;;;;;;;6.09;100.00;101754.53;4958741;28;20059;-75
2023/10/15 06:22:47;;;;;;;2.30;1.40;;;;;;;6.09;100.00;101758.03;4963938;28;20050;-75
2023/10/15 06:25:19;;;;;;;4.40;1.30;;;;;;;6.10;100.00;101754.53;4967689;28;20121;-76
2023/10/15 06:27:46;;;;;;;2.55;1.42;;;;;;;6.17;100.00;101763.28;4969218;28;20066;-76
2023/10/15 06:30:16;;;;;;;3.28;1.30;;;;;;;6.24;100.00;101769.41;4969236;28;20081;-76
2023/10/15 06:32:52;;;;;;;4.28;1.80;;;;;;;6.28;100.00;101789.47;4955785;28;20038;-75
2023/10/15 06:35:23;;;;;;;4.60;1.55;;;;;;;6.31;100.00;101792.97;4968882;28;20054;-75
2023/10/15 06:37:55;;;;;;;5.53;1.70;;;;;;;6.35;100.00;101786.03;4968636;28;20651;-74
2023/10/15 06:40:25;;;;;;;3.25;1.35;;;;;;;6.37;100.00;101792.13;4963698;28;20046;-74
2023/10/15 06:42:53;;;;;;;4.43;1.70;;;;;;;6.37;100.00;101790.41;4964134;28;20051;-74
2023/10/15 06:45:20;;;;;;;3.60;1.80;;;;;;;6.37;100.00;101797.38;4962065;28;20057;-73
2023/10/15 06:47:52;;;;;;;4.10;1.58;;;;;;;6.34;100.00;101793.00;4965837;28;20046;-73
2023/10/15 06:50:22;;;;;;;3.78;1.50;;;;;;;6.35;100.00;101789.50;4969482;28;20046;-74
2023/10/15 06:52:53;;;;;;;5.68;1.90;;;;;;;6.45;100.00;101779.94;4965393;28;20567;-74
2023/10/15 06:55:21;;;;;;;5.82;2.03;;;;;;;6.58;100.00;101778.22;4969147;28;20074;-75
2023/10/15 06:57:50;;;;;;;4.88;1.83;;;;;;;6.68;100.00;101772.09;4970957;28;20045;-75
2023/10/15 07:00:23;;;;;;;2.92;1.90;;;;;;;6.78;100.00;101772.97;4962145;28;20507;-74
2023/10/15 07:02:53;;;;;;;3.40;1.67;;;;;;;6.83;100.00;101773.88;4969600;28;20503;-74
2023/10/15 07:05:25;;;;;;;3.40;1.80;;;;;;;6.87;100.00;101772.13;4969648;28;20043;-74
2023/10/15 07:07:58;;;;;;;3.80;1.85;;;;;;;6.97;100.00;101775.59;4967873;28;20042;-73
2023/10/15 07:10:27;;;;;;;3.53;1.70;;;;;;;7.00;100.00;101783.47;4964456;28;20126;-72
2023/10/15 07:12:55;;;;;;;5.15;2.05;;;;;;;6.92;100.00;101788.69;4965742;28;20053;-71
2023/10/15 07:15:25;;;;;;;3.65;1.50;;;;;;;6.87;100.00;101802.72;4970776;28;20050;-73
2023/10/15 07:17:53;;;;;;;3.90;1.77;;;;;;;6.80;100.00;101792.19;4968312;28;20054;-75
2023/10/15 07:20:21;;;;;;;5.03;1.98;;;;;;;6.80;100.00;101796.59;4966671;28;20453;-74
2023/10/15 07:22:50;;;;;;;3.38;1.63;;;;;;;6.81;100.00;101793.94;4960909;28;20495;-74
2023/10/15 07:25:19;;;;;;;3.13;1.52;;;;;;;6.84;100.00;101801.81;4963222;28;20047;-73
2023/10/15 07:27:50;;;;;;;4.15;1.63;;;;;;;6.84;100.00;101817.56;4965454;28;20404;-75
2023/10/15 07:30:19;;;;;;;2.85;1.70;;;;;;;6.87;100.00;101821.06;4968527;28;20134;-76
2023/10/15 07:32:53;;;;;;;3.47;1.60;;;;;;;6.91;100.00;101838.50;4967187;28;20479;-76
2023/10/15 07:35:26;;;;;;;2.65;1.65;;;;;;;6.91;100.00;101831.53;4967300;28;20542;-76
2023/10/15 07:37:53;;;;;;;3.75;1.52;;;;;;;6.97;100.00;101820.16;4965512;28;20043;-76
2023/10/15 07:40:22;;;;;;;4.22;1.58;;;;;;;7.12;100.00;101827.19;4964379;28;20067;-75
2023/10/15 07:42:53;;;;;;;3.83;1.58;;;;;;;7.23;100.00;101833.28;4965689;28;20090;-74
2023/10/15 07:45:28;;;;;;;3.60;1.63;;;;;;;7.34;100.00;101835.00;4966046;28;20043;-74
2023/10/15 07:48:00;;;;;;;3.47;1.52;;;;;;;7.40;100.00;101835.88;4964014;28;20031;-74
2023/10/15 07:50:36;;;;;;;5.72;1.70;;;;;;;7.46;100.00;101819.25;4966058;28;20499;-74
2023/10/15 07:53:04;;;;;;;2.40;1.48;;;;;;;7.52;100.00;101842.88;4967154;28;20554;-74
2023/10/15 07:55:32;;;;;;;2.83;1.35;;;;;;;7.53;100.00;101857.72;4967212;28;20043;-75
2023/10/15 07:58:00;;;;;;;5.13;1.58;;;;;;;7.45;100.00;101857.75;4964717;28;20562;-75
2023/10/15 08:00:30;;;;;;;3.80;1.45;;;;;;;7.39;100.00;101862.13;4967624;28;20478;-74
2023/10/15 08:02:58;;;;;;;3.67;1.35;;;;;;;7.35;100.00;101869.13;4962983;28;20618;-74
2023/10/15 08:05:31;;;;;;;5.72;1.55;;;;;;;7.31;100.00;101862.13;4967472;28;20059;-73
2023/10/15 08:08:00;;;;;;;3.22;1.42;;;;;;;7.33;100.00;101875.22;4968700;28;20039;-73
2023/10/15 08:10:32;;;;;;;4.15;1.70;;;;;;;7.35;100.00;101884.88;4965254;28;21043;-71
2023/10/15 08:13:03;;;;;;;3.95;1.77;;;;;;;7.36;100.00;101880.50;4967250;28;20105;-67
2023/10/15 08:15:33;;;;;;;3.70;1.95;;;;;;;7.35;100.00;101877.00;4949751;28;20051;-72
2023/10/15 08:18:02;;;;;;;5.70;1.85;;;;;;;7.36;100.00;101881.38;4960386;28;20050;-71
2023/10/15 08:20:31;;;;;;;4.13;1.77;;;;;;;7.36;100.00;101885.72;4965222;28;20055;-71
2023/10/15 08:23:00;;;;;;;5.05;1.83;;;;;;;7.38;100.00;101889.25;4962535;28;20094;-72
2023/10/15 08:25:31;;;;;;;3.70;1.38;;;;;;;7.43;100.00;101895.34;4964300;28;20046;-71
2023/10/15 08:28:02;;;;;;;3.13;1.83;;;;;;;7.48;100.00;101901.47;4966762;28;20639;-71
2023/10/15 08:30:32;;;;;;;4.65;1.63;;;;;;;7.57;100.00;101908.47;4961282;28;20051;-71
2023/10/15 08:33:01;;;;;;;5.18;2.22;;;;;;;7.62;100.00;101909.34;4955901;28;20039;-71
2023/10/15 08:35:28;;;;;;;3.97;1.60;;;;;;;7.69;100.00;101911.06;4967997;28;20098;-71
2023/10/15 08:37:59;;;;;;;6.10;1.75;;;;;;;7.74;100.00;101908.44;4966562;28;20047;-71
2023/10/15 08:40:32;;;;;;;3.95;1.55;;;;;;;7.81;100.00;101906.69;4963443;28;20070;-72
2023/10/15 08:43:20;;;;;;;3.42;1.30;;;;;;;7.95;100.00;101912.78;4959825;28;20669;-69
2023/10/15 08:45:49;;;;;;;4.13;0.93;;;;;;;8.10;100.00;101922.38;4959740;28;20049;-71
2023/10/15 08:48:18;;;;;;;5.32;1.10;;;;;;;8.14;100.00;101916.22;4960663;28;20046;-71
2023/10/15 08:50:46;;;;;;;2.88;0.90;;;;;;;8.18;100.00;101914.50;4959938;28;20049;-73
2023/10/15 08:53:16;;;;;;;4.82;1.10;;;;;;;8.25;100.00;101924.09;4964996;28;20454;-72
2023/10/15 08:55:43;;;;;;;2.72;1.00;;;;;;;8.30;100.00;101937.22;4963606;28;20074;-75
2023/10/15 08:58:11;;;;;;;2.83;1.10;;;;;;;8.37;100.00;101946.81;4956266;28;20520;-75
2023/10/15 09:00:39;;;;;;;4.30;0.90;;;;;;;8.40;100.00;101954.69;4962386;28;20042;-75
2023/10/15 09:03:07;;;;;;;3.58;0.85;;;;;;;8.37;100.00;101963.47;4954563;28;20050;-75
2023/10/15 09:05:36;;;;;;;4.20;1.10;;;;;;;8.38;100.00;101964.34;4964080;28;20639;-75
2023/10/15 09:08:08;;;;;;;4.50;1.05;;;;;;;8.33;100.00;101968.75;4959408;28;20047;-75
2023/10/15 09:10:40;;;;;;;2.90;1.00;;;;;;;8.30;100.00;101961.72;4953327;28;20482;-74
2023/10/15 09:13:14;;;;;;;4.50;0.93;;;;;;;8.31;100.00;101952.97;4960307;28;20047;-75
2023/10/15 09:15:45;;;;;;;3.97;0.80;;;;;;;8.33;100.00;101958.22;4956514;28;20055;-74
2023/10/15 09:18:15;;;;;;;5.38;1.10;;;;;;;8.35;99.97;101965.22;4961499;28;20036;-75
2023/10/15 09:20:47;;;;;;;3.72;0.80;;;;;;;8.35;99.00;101972.22;4963621;28;20070;-75
2023/10/15 09:23:15;;;;;;;5.10;0.90;;;;;;;8.35;100.00;101969.59;4960516;28;20597;-75
2023/10/15 09:25:44;;;;;;;4.00;0.90;;;;;;;8.43;100.00;101975.72;4962765;28;20077;-78
2023/10/15 09:28:12;;;;;;;2.45;1.00;;;;;;;8.48;100.00;101973.97;4965377;28;20043;-77
2023/10/15 09:30:40;;;;;;;3.72;1.00;;;;;;;8.53;100.00;101972.22;4962597;28;20077;-78
2023/10/15 09:33:12;;;;;;;3.95;1.30;;;;;;;8.61;100.00;101972.16;4961518;28;20051;-76
2023/10/15 09:35:41;;;;;;;2.88;1.45;;;;;;;8.70;100.00;101982.63;4960003;28;20053;-72
2023/10/15 09:38:13;;;;;;;4.28;1.27;;;;;;;8.77;100.00;101980.84;4976932;28;20054;-73
2023/10/15 09:40:45;;;;;;;3.30;1.17;;;;;;;8.83;98.95;101983.47;4966609;28;20053;-72
2023/10/15 09:43:13;;;;;;;4.78;1.10;;;;;;;8.89;99.02;101982.56;4965332;28;20134;-74
2023/10/15 09:45:44;;;;;;;3.30;0.90;;;;;;;8.99;99.44;101994.81;4969202;28;20042;-74
2023/10/15 09:48:11;;;;;;;3.35;0.90;;;;;;;9.20;97.96;102005.19;4972772;28;20050;-74
2023/10/15 09:50:41;;;;;;;4.78;1.40;;;;;;;9.33;96.79;102007.72;4969248;28;20523;-75
2023/10/15 09:53:10;;;;;;;4.00;1.33;;;;;;;9.43;95.75;102016.47;4976028;28;20066;-75
2023/10/15 09:55:40;;;;;;;4.22;1.27;;;;;;;9.45;95.85;102017.31;4967394;28;20046;-75
2023/10/15 09:58:11;;;;;;;3.40;1.15;;;;;;;9.52;94.82;102018.13;4968447;28;20129;-75
2023/10/15 10:00:47;;;;;;;4.30;1.00;;;;;;;9.53;95.08;102019.88;4951769;28;20054;-76
2023/10/15 10:03:47;;;;;;;3.10;1.00;;;;;;;9.61;95.74;102022.47;4949356;28;20051;-76
2023/10/15 10:06:47;;;;;;;3.03;0.77;;;;;;;9.63;94.37;102032.09;4965381;28;20039;-74
2023/10/15 10:09:59;;;;;;;4.25;1.15;;;;;;;9.61;94.22;102025.97;4965431;28;20129;-76
2023/10/15 10:13:18;;;;;;;3.42;1.05;;;;;;;9.73;93.99;102035.56;4974136;28;20070;-75
2023/10/15 10:15:55;;;;;;;4.95;1.30;;;;;;;9.71;92.91;102037.31;4983999;28;20070;-75
2023/10/15 10:18:24;;;;;;;1.58;0.95;;;;;;;9.63;94.07;102040.00;4970762;28;20055;-75
2023/10/15 10:20:52;;;;;;;2.70;0.90;;;;;;;9.57;91.81;102045.31;4969729;28;20043;-75
2023/10/15 10:23:22;;;;;;;2.90;0.75;;;;;;;9.48;90.19;102054.13;5000160;28;20047;-74
2023/10/15 10:25:50;;;;;;;4.07;1.10;;;;;;;9.46;91.29;102050.63;4968134;28;20047;-75
2023/10/15 10:28:21;;;;;;;4.40;1.08;;;;;;;9.56;91.44;102055.88;4964831;28;20046;-75
2023/10/15 10:30:54;;;;;;;4.03;1.08;;;;;;;9.69;91.37;102057.50;4968562;28;20043;-75
2023/10/15 10:33:43;;;;;;;2.55;0.80;;;;;;;9.91;92.60;102054.72;4968713;28;20125;-74
2023/10/15 10:36:25;;;;;;;4.00;1.08;;;;;;;10.01;92.55;102055.53;4971468;28;20063;-75
2023/10/15 10:39:07;;;;;;;1.30;0.50;;;;;;;9.99;86.29;102065.19;4963231;28;20322;-75
2023/10/15 10:41:46;;;;;;;1.83;0.50;;;;;;;9.84;84.53;102064.44;4960832;28;20131;-75
2023/10/15 10:44:22;;;;;;;2.03;0.60;;;;;;;9.69;85.94;102065.41;4961383;28;20059;-75
2023/10/15 10:46:57;;;;;;;4.30;0.70;;;;;;;9.72;86.79;102056.59;4963482;28;20082;-75
2023/10/15 10:49:35;;;;;;;2.70;0.88;;;;;;;9.66;86.24;102057.56;4964556;28;20047;-75
2023/10/15 10:52:30;;;;;;;1.55;0.60;;;;;;;9.48;85.67;102053.28;4962164;28;20089;-75
2023/10/15 10:55:33;;;;;;;1.55;0.73;;;;;;;9.20;86.08;102063.97;4962679;28;20047;-76
2023/10/15 10:58:08;;;;;;;2.00;0.57;;;;;;;8.98;87.70;102064.06;4979259;28;20039;-76
2023/10/15 11:00:35;;;;;;;3.05;0.70;;;;;;;9.02;89.20;102067.56;4970220;28;20558;-75
2023/10/15 11:03:06;;;;;;;1.30;0.45;;;;;;;9.14;88.10;102070.13;4967405;28;20094;-76
2023/10/15 11:05:35;;;;;;;2.08;0.60;;;;;;;9.33;87.49;102072.66;4967259;28;20034;-77
2023/10/15 11:08:03;;;;;;;2.03;0.57;;;;;;;9.47;87.34;102073.44;4968132;28;20043;-76
2023/10/15 11:10:32;;;;;;;3.08;0.80;;;;;;;9.61;88.67;102073.34;4969511;28;20532;-77
2023/10/15 11:12:59;;;;;;;3.28;0.63;;;;;;;9.81;88.20;102067.09;4969471;28;20042;-77
2023/10/15 11:15:26;;;;;;;1.38;0.40;;;;;;;9.94;87.22;102070.50;4967453;28;20057;-77
2023/10/15 11:17:58;;;;;;;3.35;0.70;;;;;;;10.04;88.79;102063.38;4970071;28;20042;-76
2023/10/15 11:20:27;;;;;;;1.10;0.60;;;;;;;10.15;89.49;102056.25;4968870;28;20050;-77
2023/10/15 11:22:54;;;;;;;1.13;0.52;;;;;;;10.26;90.27;102049.13;4967559;28;20070;-77
2023/10/15 11:25:23;;;;;;;1.00;0.38;;;;;;;10.43;90.21;102057.78;4970382;28;20077;-77
2023/10/15 11:27:51;;;;;;;2.00;0.70;;;;;;;10.53;88.35;102051.53;4968063;28;20086;-77
2023/10/15 11:30:20;;;;;;;1.98;0.60;;;;;;;10.64;88.18;102062.84;4968601;28;20065;-76
2023/10/15 11:32:51;;;;;;;2.53;0.70;;;;;;;10.72;84.88;102060.13;4970656;28;20049;-77
2023/10/15 11:35:19;;;;;;;2.72;0.60;;;;;;;10.69;81.36;102062.78;4967974;28;20053;-73
2023/10/15 11:37:50;;;;;;;4.18;0.73;;;;;;;10.66;83.27;102054.91;4966418;28;20043;-74
2023/10/15 11:40:21;;;;;;;4.38;0.80;;;;;;;10.75;85.16;102057.44;4972303;28;20054;-74
2023/10/15 11:42:54;;;;;;;5.72;0.80;;;;;;;10.92;87.03;102061.66;4968273;28;20070;-73
2023/10/15 11:45:30;;;;;;;3.17;0.83;;;;;;;11.05;85.15;102057.94;4968251;28;20058;-74
2023/10/15 11:47:58;;;;;;;2.90;0.70;;;;;;;11.11;82.31;102046.44;4954402;28;20958;-74
2023/10/15 11:50:26;;;;;;;2.55;0.90;;;;;;;11.24;84.72;102055.09;4969430;28;20038;-76
2023/10/15 11:52:58;;;;;;;5.40;0.80;;;;;;;11.21;84.71;102050.69;4968651;28;20491;-76
2023/10/15 11:55:31;;;;;;;2.72;0.70;;;;;;;11.40;85.70;102056.59;4967930;28;20043;-74
2023/10/15 11:58:10;;;;;;;2.28;0.63;;;;;;;11.61;80.88;102057.19;4967028;28;20756;-73
2023/10/15 12:00:39;;;;;;;2.63;0.70;;;;;;;11.48;80.67;102057.38;4970026;28;20043;-76
2023/10/15 12:03:09;;;;;;;3.70;1.00;;;;;;;11.44;82.05;102053.03;4970089;28;20145;-74
2023/10/15 12:05:37;;;;;;;3.17;0.75;;;;;;;11.47;84.60;102055.63;4960396;28;20090;-74
2023/10/15 12:08:05;;;;;;;4.65;0.80;;;;;;;11.45;80.67;102061.81;4967908;28;20134;-75